Argus, California
Current Conditions -  °F | °C
As of 11:56 PM on Saturday 25 Oct 2014 (Local Time) from KNID Reporting Station
Clear Clear  
Wind Chill: 66°   Ceiling: Unl
Heat Index: 66°   Visibility: 10mi
Dew Point: 35°   Wind: 17mph
Humidity: 32%   Direction: 200°SSW
Pressure: 29.98"   Gusts: NA
Location:  35.6496°N, 117.375°W
Report Text: KNID 260656Z AUTO 20015KT 10SM CLR 19/02 A2998 RMK AO2 SLP135 T01890017 $
Loading
Personal Weather Stations






























Interactive Weather Map
Tropical Storm Tracking
New forecast layout! Learn more

10-Day Weather Forecast

Advertisements
Track Severe Weather on mobile